createdAt,value
2018-09-18T00:04:36.552Z,58.50
2018-09-18T00:14:39.792Z,58.30
2018-09-18T00:24:43.072Z,58.60
2018-09-18T00:34:46.322Z,58.90
2018-09-18T00:44:49.724Z,58.70
2018-09-18T00:54:52.976Z,59.10
2018-09-18T01:04:56.224Z,59.60
2018-09-18T01:14:59.460Z,59.90
2018-09-18T01:25:02.717Z,60.20
2018-09-18T01:35:05.968Z,60.80
2018-09-18T01:45:09.244Z,61.70
2018-09-18T01:55:12.496Z,61.60
2018-09-18T02:05:15.760Z,62.50
2018-09-18T02:15:19.012Z,61.20
2018-09-18T02:25:22.328Z,62.00
2018-09-18T02:35:25.568Z,62.30
2018-09-18T02:45:28.913Z,62.20
2018-09-18T02:55:32.192Z,61.90
2018-09-18T03:05:35.432Z,62.90
2018-09-18T03:15:38.720Z,62.20
2018-09-18T03:25:41.977Z,62.20
2018-09-18T03:35:45.619Z,62.70
2018-09-18T03:45:48.784Z,63.00
2018-09-18T03:55:52.040Z,62.90
2018-09-18T04:05:55.269Z,63.00
2018-09-18T04:15:58.720Z,62.90
2018-09-18T04:26:02.072Z,63.50
2018-09-18T04:36:05.308Z,64.20
2018-09-18T04:46:08.757Z,63.80
2018-09-18T04:56:12.035Z,65.00
2018-09-18T05:06:15.283Z,64.80
2018-09-18T05:16:18.565Z,64.90
2018-09-18T05:26:21.853Z,64.70
2018-09-18T05:36:25.100Z,64.20
2018-09-18T05:46:28.340Z,63.20
2018-09-18T05:56:31.652Z,63.90
2018-09-18T06:06:34.981Z,65.10
2018-09-18T06:16:38.256Z,63.90
2018-09-18T06:26:41.512Z,62.80
2018-09-18T06:36:44.792Z,62.10
2018-09-18T06:46:48.077Z,62.80
2018-09-18T06:56:51.376Z,62.10
2018-09-18T07:06:54.612Z,63.20
2018-09-18T07:16:57.898Z,63.50
2018-09-18T07:27:01.260Z,61.70
2018-09-18T07:37:04.596Z,60.10
2018-09-18T07:47:08.741Z,59.10
2018-09-18T07:57:12.015Z,57.70
2018-09-18T08:07:15.361Z,57.10
2018-09-18T08:17:18.752Z,56.50
2018-09-18T08:27:22.626Z,55.80
2018-09-18T08:37:25.856Z,55.20
2018-09-18T08:47:29.974Z,55.30
2018-09-18T08:57:33.470Z,55.10
2018-09-18T09:07:36.813Z,54.80
2018-09-18T09:17:40.208Z,54.60
2018-09-18T09:27:43.581Z,54.50
2018-09-18T09:37:46.941Z,54.20
2018-09-18T09:47:50.265Z,54.00
2018-09-18T09:57:53.605Z,53.40
2018-09-18T10:07:56.925Z,52.80
2018-09-18T10:18:01.729Z,52.20
2018-09-18T10:28:05.864Z,51.80
2018-09-18T10:38:09.457Z,51.60
2018-09-18T10:48:13.044Z,50.20
2018-09-18T10:58:16.982Z,50.00
2018-09-18T11:08:20.478Z,49.10
2018-09-18T11:18:24.064Z,48.60
2018-09-18T11:28:32.324Z,48.20
2018-09-18T11:38:35.577Z,47.80
2018-09-18T11:48:38.849Z,46.50
2018-09-18T11:58:42.284Z,44.70
2018-09-18T12:08:45.666Z,43.70
2018-09-18T12:18:48.989Z,40.90
2018-09-18T12:28:52.309Z,38.70
2018-09-18T12:38:55.664Z,36.30
2018-09-18T12:48:59.026Z,36.30
2018-09-18T12:59:02.326Z,37.30
2018-09-18T13:09:08.077Z,36.60
2018-09-18T13:19:11.604Z,37.00
2018-09-18T13:29:14.905Z,36.50
2018-09-18T13:39:18.202Z,36.80
2018-09-18T13:49:21.556Z,35.70
2018-09-18T13:59:24.825Z,35.30
2018-09-18T14:09:28.149Z,35.00
2018-09-18T14:19:31.584Z,34.80
2018-09-18T14:29:34.916Z,33.50
2018-09-18T14:39:38.250Z,34.00
2018-09-18T14:49:41.581Z,34.00
2018-09-18T14:59:45.461Z,34.20
2018-09-18T15:09:48.958Z,32.50
2018-09-18T15:19:52.331Z,33.00
2018-09-18T15:29:56.164Z,34.60
2018-09-18T15:39:59.825Z,34.60
2018-09-18T15:50:04.192Z,35.30
2018-09-18T16:00:07.514Z,35.30
2018-09-18T16:10:10.952Z,36.10
2018-09-18T16:20:14.486Z,36.30
2018-09-18T16:30:17.810Z,36.80
2018-09-18T16:40:21.994Z,37.60
2018-09-18T16:50:27.283Z,38.20
2018-09-18T17:00:30.649Z,38.40
2018-09-18T17:10:33.974Z,39.10
2018-09-18T17:20:37.229Z,39.90
2018-09-18T17:30:40.564Z,40.80
2018-09-18T17:40:43.853Z,41.80
2018-09-18T17:50:47.810Z,43.20
2018-09-18T18:00:52.058Z,43.80
2018-09-18T18:10:55.416Z,44.30
2018-09-18T18:20:58.724Z,45.60
2018-09-18T18:31:02.080Z,47.50
2018-09-18T18:41:05.410Z,47.50
2018-09-18T18:51:08.593Z,48.20
2018-09-18T19:01:11.909Z,48.70
2018-09-18T19:11:15.262Z,49.80
2018-09-18T19:21:18.605Z,50.80
2018-09-18T19:31:22.050Z,51.80
2018-09-18T19:41:25.340Z,52.70
2018-09-18T19:51:28.801Z,53.50
2018-09-18T20:01:32.111Z,53.80
2018-09-18T20:11:35.359Z,54.80
2018-09-18T20:21:38.681Z,54.60
2018-09-18T20:31:41.956Z,55.80
2018-09-18T20:41:45.236Z,55.50
2018-09-18T20:51:48.449Z,56.30
2018-09-18T21:01:51.902Z,56.80
2018-09-18T21:11:55.679Z,57.00
2018-09-18T21:21:58.976Z,57.40
2018-09-18T21:32:03.382Z,58.40
2018-09-18T21:42:08.025Z,58.50
2018-09-18T21:52:11.320Z,58.90
2018-09-18T22:02:14.658Z,59.20
2018-09-18T22:12:17.966Z,59.40
2018-09-18T22:22:21.296Z,59.70
2018-09-18T22:32:24.553Z,59.90
2018-09-18T22:42:27.835Z,60.60
2018-09-18T22:52:31.108Z,61.00
2018-09-18T23:02:34.396Z,61.80
2018-09-18T23:12:37.652Z,61.90
2018-09-18T23:22:41.009Z,62.60
2018-09-18T23:32:44.276Z,62.30
2018-09-18T23:42:47.529Z,62.80
2018-09-18T23:52:50.830Z,63.60
